createdAt,value
2022-11-23T00:01:41.508Z,875
2022-11-23T00:03:25.176Z,872.2
2022-11-23T00:05:08.888Z,869.6
2022-11-23T00:06:52.533Z,862.2
2022-11-23T00:08:36.244Z,852.4
2022-11-23T00:10:19.969Z,843.3
2022-11-23T00:12:03.676Z,841.6
2022-11-23T00:13:47.355Z,841.6
2022-11-23T00:15:31.037Z,839.7
2022-11-23T00:17:14.760Z,837.5
2022-11-23T00:18:58.512Z,833.7
2022-11-23T00:20:42.160Z,830.9
2022-11-23T00:22:25.861Z,825.6
2022-11-23T00:24:09.579Z,820.2
2022-11-23T00:25:53.263Z,818.9
2022-11-23T00:27:37.099Z,814.4
2022-11-23T00:29:20.782Z,809.5
2022-11-23T00:31:04.368Z,806.3
2022-11-23T00:32:48.135Z,805.5
2022-11-23T00:34:31.766Z,806.1
2022-11-23T00:36:15.541Z,801.7
2022-11-23T00:37:59.170Z,795.5
2022-11-23T00:39:42.896Z,792.5
2022-11-23T00:41:26.597Z,789.4
2022-11-23T00:43:10.294Z,782.7
2022-11-23T00:44:54.032Z,778.5
2022-11-23T00:46:37.781Z,777.5
2022-11-23T00:48:21.403Z,776.9
2022-11-23T00:50:05.114Z,773.6
2022-11-23T00:51:48.880Z,769.5
2022-11-23T00:53:32.529Z,770.4
2022-11-23T00:55:16.226Z,766.1
2022-11-23T00:57:00.025Z,760.6
2022-11-23T00:58:43.597Z,758.8
2022-11-23T01:00:27.345Z,758.2
2022-11-23T01:02:11.008Z,755.8
2022-11-23T01:03:54.781Z,752.4
2022-11-23T01:05:38.449Z,748.9
2022-11-23T01:07:22.129Z,747.5
2022-11-23T01:09:05.920Z,743.9
2022-11-23T01:10:49.523Z,740
2022-11-23T01:12:33.220Z,731.2
2022-11-23T01:14:16.933Z,728.1
2022-11-23T01:16:00.641Z,725.4
2022-11-23T01:17:44.391Z,723.3
2022-11-23T01:19:28.118Z,720.2
2022-11-23T01:21:11.727Z,719.6
2022-11-23T01:22:55.445Z,718.1
2022-11-23T01:24:39.299Z,714.5
2022-11-23T01:26:22.928Z,711.9
2022-11-23T01:28:06.532Z,709.1
2022-11-23T01:29:50.353Z,707
2022-11-23T01:31:33.941Z,705.2
2022-11-23T01:33:17.693Z,706.9
2022-11-23T01:35:01.396Z,705.6
2022-11-23T01:36:45.109Z,704.1
2022-11-23T01:38:28.756Z,697.5
2022-11-23T01:40:12.607Z,695.6
2022-11-23T01:41:56.165Z,696.5
2022-11-23T01:43:39.950Z,697.9
2022-11-23T01:45:23.564Z,699.7
2022-11-23T01:47:07.323Z,698.8
2022-11-23T01:48:50.995Z,697.1
2022-11-23T01:50:34.815Z,695.7
2022-11-23T01:52:18.556Z,692.6
2022-11-23T01:54:02.229Z,691.6
2022-11-23T01:55:45.876Z,687.9
2022-11-23T01:57:29.510Z,683.9
2022-11-23T01:59:13.184Z,681.4
2022-11-23T02:00:56.873Z,678.3
2022-11-23T02:02:40.678Z,677.8
2022-11-23T02:04:24.403Z,672.6
2022-11-23T02:06:08.104Z,670.1
2022-11-23T02:07:51.843Z,668.4
2022-11-23T02:09:35.523Z,668.1
2022-11-23T02:11:19.193Z,664.7
2022-11-23T02:13:02.909Z,665.3
2022-11-23T02:14:46.503Z,665
2022-11-23T02:16:30.343Z,663.3
2022-11-23T02:18:13.965Z,665.6
2022-11-23T02:19:57.759Z,665.4
2022-11-23T02:21:41.439Z,665.3
2022-11-23T02:23:25.150Z,659.7
2022-11-23T02:25:08.854Z,655.2
2022-11-23T02:26:52.393Z,652.3
2022-11-23T02:28:36.231Z,652.7
2022-11-23T02:30:19.985Z,652.2
2022-11-23T02:32:03.735Z,652.5
2022-11-23T02:33:47.276Z,650.2
2022-11-23T02:35:30.905Z,647.5
2022-11-23T02:37:14.614Z,644
2022-11-23T02:38:58.414Z,640.3
2022-11-23T02:40:42.155Z,635.3
2022-11-23T02:42:25.718Z,634.5
2022-11-23T02:44:09.425Z,633.6
2022-11-23T02:45:53.132Z,634
2022-11-23T02:47:36.920Z,635.1
2022-11-23T02:49:20.593Z,634.8
2022-11-23T02:51:04.340Z,636.9
2022-11-23T02:52:47.930Z,635.8
2022-11-23T02:54:31.741Z,635.8
2022-11-23T02:56:15.492Z,630.7
2022-11-23T02:57:59.145Z,627.1
2022-11-23T02:59:42.835Z,621.9
2022-11-23T03:01:26.573Z,620.5
2022-11-23T03:03:10.193Z,619.9
2022-11-23T03:04:53.884Z,616.7
2022-11-23T03:06:37.567Z,613.6
2022-11-23T03:08:21.350Z,617.6
2022-11-23T03:10:05.066Z,618.3
2022-11-23T03:11:48.686Z,615.8
2022-11-23T03:13:32.469Z,615.4
2022-11-23T03:15:16.187Z,613.6
2022-11-23T03:16:59.931Z,612
2022-11-23T03:18:43.511Z,609.4
2022-11-23T03:20:27.293Z,606.1
2022-11-23T03:22:11.054Z,606.7
2022-11-23T03:23:54.548Z,607.5
2022-11-23T03:25:38.391Z,605.7
2022-11-23T03:27:21.962Z,607.5
2022-11-23T03:29:05.788Z,608.8
2022-11-23T03:30:49.440Z,608.4
2022-11-23T03:32:33.204Z,605.8
2022-11-23T03:34:16.925Z,604.8
2022-11-23T03:36:00.645Z,604.1
2022-11-23T03:37:44.310Z,605.4
2022-11-23T03:39:27.869Z,604.7
2022-11-23T03:41:11.725Z,602
2022-11-23T03:42:55.365Z,598.1
2022-11-23T03:44:39.086Z,595.1
2022-11-23T03:46:22.829Z,595.7
2022-11-23T03:48:06.361Z,595.9
2022-11-23T03:49:50.077Z,594
2022-11-23T03:51:33.823Z,592.6
2022-11-23T03:53:17.527Z,592.2
2022-11-23T03:55:01.194Z,590.8
2022-11-23T03:56:44.965Z,588.7
2022-11-23T03:58:28.606Z,584.8
2022-11-23T04:00:12.315Z,583.8
2022-11-23T04:01:56.148Z,583.3
2022-11-23T04:03:39.842Z,583
2022-11-23T04:05:23.422Z,583.2
2022-11-23T04:07:07.115Z,584
2022-11-23T04:08:50.891Z,585.4
2022-11-23T04:10:34.641Z,587.4
2022-11-23T04:12:18.343Z,587.5
2022-11-23T04:14:01.944Z,588.6
2022-11-23T04:15:45.655Z,586.6
2022-11-23T04:17:29.434Z,585.5
2022-11-23T04:19:13.033Z,584.1
2022-11-23T04:20:56.904Z,584.7
2022-11-23T04:22:40.422Z,580.3
2022-11-23T04:24:24.231Z,579.4
2022-11-23T04:26:07.915Z,580
2022-11-23T04:27:51.615Z,578.2
2022-11-23T04:29:35.308Z,578.5
2022-11-23T04:31:19.043Z,579.7
2022-11-23T04:33:02.709Z,579.1
2022-11-23T04:34:46.410Z,576.9
2022-11-23T04:36:30.075Z,575.2
2022-11-23T04:38:13.868Z,574.8
2022-11-23T04:39:57.560Z,575.4
2022-11-23T04:41:41.295Z,573.8
2022-11-23T04:43:24.967Z,574.1
2022-11-23T04:45:08.658Z,574.7
2022-11-23T04:46:52.245Z,574
2022-11-23T04:48:36.047Z,569.1
2022-11-23T04:50:19.748Z,566
2022-11-23T04:52:03.369Z,567.3
2022-11-23T04:53:47.127Z,569.1
2022-11-23T04:55:30.765Z,566
2022-11-23T04:57:14.442Z,565.2
2022-11-23T04:58:58.161Z,563.4
2022-11-23T05:00:41.856Z,561.9
2022-11-23T05:02:25.551Z,557.1
2022-11-23T05:04:09.305Z,556.4
2022-11-23T05:05:52.978Z,556.2
2022-11-23T05:07:36.656Z,556.9
2022-11-23T05:09:20.521Z,554
2022-11-23T05:11:04.116Z,555.9
2022-11-23T05:12:47.827Z,558.2
2022-11-23T05:14:31.516Z,554.5
2022-11-23T05:16:15.216Z,555.9
2022-11-23T05:17:58.862Z,556
2022-11-23T05:19:42.575Z,557
2022-11-23T05:21:26.278Z,555.7
2022-11-23T05:23:10.107Z,556.5
2022-11-23T05:24:53.763Z,557.1
2022-11-23T05:26:37.493Z,554.3
2022-11-23T05:28:21.155Z,549.8
2022-11-23T05:30:04.822Z,548.3
2022-11-23T05:31:48.576Z,546.7
2022-11-23T05:33:32.190Z,544.4
2022-11-23T05:35:15.892Z,545.8
2022-11-23T05:36:59.622Z,546.4
2022-11-23T05:38:43.305Z,548.3
2022-11-23T05:40:27.143Z,547
2022-11-23T05:42:10.693Z,546.2
2022-11-23T05:43:54.592Z,544.3
2022-11-23T05:45:38.213Z,543.5
2022-11-23T05:47:21.956Z,543.9
2022-11-23T05:49:05.584Z,546.3
2022-11-23T05:50:49.394Z,546.8
2022-11-23T05:52:33.027Z,545.4
2022-11-23T05:54:16.836Z,546.3
2022-11-23T05:56:00.319Z,546.5
2022-11-23T05:57:44.164Z,549.3
2022-11-23T05:59:27.819Z,550
2022-11-23T06:01:11.580Z,547.8
2022-11-23T06:02:55.241Z,548.1
2022-11-23T06:04:38.983Z,542.8
2022-11-23T06:06:22.670Z,540.9
2022-11-23T06:08:06.328Z,541.6
2022-11-23T06:09:50.056Z,541.3
2022-11-23T06:11:33.720Z,542.6
2022-11-23T06:13:17.509Z,540.8
2022-11-23T06:15:01.063Z,538.9
2022-11-23T06:16:44.850Z,533.6
2022-11-23T06:18:28.597Z,532.1
2022-11-23T06:20:12.266Z,530.1
2022-11-23T06:21:55.980Z,528
2022-11-23T06:23:39.559Z,528.5
2022-11-23T06:25:23.259Z,528.3
2022-11-23T06:27:07.032Z,527.9
2022-11-23T06:28:50.669Z,530.2
2022-11-23T06:30:34.484Z,531
2022-11-23T06:32:18.067Z,531.4
2022-11-23T06:34:01.876Z,529.5
2022-11-23T06:35:45.575Z,529.4
2022-11-23T06:37:29.223Z,529.5
2022-11-23T06:39:12.880Z,527.7
2022-11-23T06:40:56.650Z,526.6
2022-11-23T06:42:40.442Z,525.7
2022-11-23T06:44:24.046Z,526.1
2022-11-23T06:46:07.805Z,527.1
2022-11-23T06:47:51.453Z,525.5
2022-11-23T06:49:35.230Z,522.4
2022-11-23T06:51:18.898Z,518.6
2022-11-23T06:53:02.658Z,516.1
2022-11-23T06:54:46.293Z,515.7
2022-11-23T06:56:30.019Z,517.4
2022-11-23T06:58:13.639Z,521.1
2022-11-23T06:59:57.289Z,519.2
2022-11-23T07:01:41.113Z,517.4
2022-11-23T07:03:24.848Z,517
2022-11-23T07:05:08.434Z,516.3
2022-11-23T07:06:52.092Z,520.2
2022-11-23T07:08:35.797Z,520.8
2022-11-23T07:10:19.577Z,521.2
2022-11-23T07:12:03.218Z,518.8
2022-11-23T07:13:46.933Z,517.4
2022-11-23T07:15:30.625Z,516.9
2022-11-23T07:17:14.381Z,517.1
2022-11-23T07:18:58.006Z,518.4
2022-11-23T07:20:41.839Z,518.3
2022-11-23T07:22:25.413Z,518.7
2022-11-23T07:24:09.189Z,517.8
2022-11-23T07:25:52.811Z,518
2022-11-23T07:27:36.602Z,518.8
2022-11-23T07:29:20.370Z,519.9
2022-11-23T07:31:03.974Z,521.5
2022-11-23T07:32:47.756Z,523.3
2022-11-23T07:34:31.395Z,523.8
2022-11-23T07:36:15.017Z,524.6
2022-11-23T07:37:58.749Z,526.4
2022-11-23T07:39:42.420Z,526.2
2022-11-23T07:41:26.121Z,526.7
2022-11-23T07:43:09.896Z,528.2
2022-11-23T07:44:53.554Z,528.5
2022-11-23T07:46:37.239Z,524.1
2022-11-23T07:48:21.084Z,521.3
2022-11-23T07:50:04.641Z,521.7
2022-11-23T07:51:48.367Z,521.3
2022-11-23T07:53:32.101Z,519.6
2022-11-23T07:55:15.828Z,519.1
2022-11-23T07:56:59.440Z,520.5
2022-11-23T07:58:43.322Z,527.6
2022-11-23T08:00:26.881Z,533.7
2022-11-23T08:02:10.560Z,535.2
2022-11-23T08:03:54.345Z,537.6
2022-11-23T08:05:38.170Z,543.7
2022-11-23T08:07:21.766Z,543.1
2022-11-23T08:09:05.510Z,544.4
2022-11-23T08:10:49.141Z,547.1
2022-11-23T08:12:32.872Z,549.6
2022-11-23T08:14:16.452Z,556.1
2022-11-23T08:16:00.160Z,561.1
2022-11-23T08:17:43.878Z,562.3
2022-11-23T08:19:27.577Z,567.6
2022-11-23T08:21:11.348Z,573.7
2022-11-23T08:22:54.958Z,577.5
2022-11-23T08:24:38.827Z,585.1
2022-11-23T08:26:22.546Z,587
2022-11-23T08:28:06.178Z,592.2
2022-11-23T08:29:49.781Z,600.4
2022-11-23T08:31:33.567Z,604.8
2022-11-23T08:33:17.242Z,611.2
2022-11-23T08:35:00.983Z,613.6
2022-11-23T08:36:44.610Z,614.5
2022-11-23T08:38:28.461Z,615.7
2022-11-23T08:40:11.989Z,619.3
2022-11-23T08:41:55.752Z,622
2022-11-23T08:45:23.245Z,624
2022-11-23T08:47:06.974Z,624.8
2022-11-23T08:48:50.616Z,624.1
2022-11-23T08:50:34.246Z,623.7
2022-11-23T08:52:17.927Z,622.6
2022-11-23T08:54:01.588Z,621.6
2022-11-23T08:55:45.300Z,620.3
2022-11-23T08:57:29.085Z,619.5
2022-11-23T08:59:12.810Z,623.3
2022-11-23T09:00:56.579Z,622.6
2022-11-23T09:02:40.105Z,621.1
2022-11-23T09:04:23.956Z,622.6
2022-11-23T09:06:07.519Z,624
2022-11-23T09:07:51.217Z,624.7
2022-11-23T09:09:35.023Z,623.7
2022-11-23T09:11:18.652Z,624.9
2022-11-23T09:13:02.379Z,625.2
2022-11-23T09:14:46.240Z,625.5
2022-11-23T09:16:29.774Z,624
2022-11-23T09:18:13.520Z,623.7
2022-11-23T09:19:57.143Z,622.4
2022-11-23T09:21:40.935Z,622.6
2022-11-23T09:23:24.538Z,621.4
2022-11-23T09:25:08.404Z,616.4
2022-11-23T09:26:52.082Z,613.5
2022-11-23T09:28:35.793Z,611.5
2022-11-23T09:30:19.461Z,610.2
2022-11-23T09:32:03.195Z,607.9
2022-11-23T09:33:46.742Z,607
2022-11-23T09:35:30.456Z,607
2022-11-23T09:37:14.330Z,604.5
2022-11-23T09:38:57.950Z,602.7
2022-11-23T09:40:41.575Z,604.1
2022-11-23T09:42:25.357Z,604.7
2022-11-23T09:44:09.043Z,603
2022-11-23T09:45:52.818Z,602.8
2022-11-23T09:47:36.499Z,600.7
2022-11-23T09:49:20.164Z,596.5
2022-11-23T09:51:03.860Z,594.2
2022-11-23T09:52:47.462Z,593.2
2022-11-23T09:54:31.329Z,592.7
2022-11-23T09:56:14.915Z,592.3
2022-11-23T09:57:58.699Z,593.3
2022-11-23T09:59:42.436Z,593.9
2022-11-23T10:01:25.958Z,594
2022-11-23T10:03:09.815Z,592.8
2022-11-23T10:04:53.618Z,593.7
2022-11-23T10:06:37.224Z,592.4
2022-11-23T10:08:20.864Z,591.4
2022-11-23T10:10:04.577Z,592.4
2022-11-23T10:11:48.279Z,592.8
2022-11-23T10:13:31.981Z,592
2022-11-23T10:15:15.584Z,593.3
2022-11-23T10:16:59.310Z,592.4
2022-11-23T10:18:42.995Z,591.4
2022-11-23T10:20:26.702Z,593
2022-11-23T10:22:10.383Z,593
2022-11-23T10:23:54.115Z,592.1
2022-11-23T10:25:37.921Z,591.1
2022-11-23T10:27:21.657Z,590.5
2022-11-23T10:29:05.263Z,595.4
2022-11-23T10:30:48.986Z,596.1
2022-11-23T10:32:32.730Z,596.5
2022-11-23T10:34:16.432Z,596.5
2022-11-23T10:36:00.097Z,596.2
2022-11-23T10:37:43.778Z,596.5
2022-11-23T10:39:27.510Z,596.5
2022-11-23T10:41:11.244Z,595.5
2022-11-23T10:42:54.839Z,594.2
2022-11-23T10:44:38.612Z,592.1
2022-11-23T10:46:22.212Z,594
2022-11-23T10:48:06.005Z,593.4
2022-11-23T10:49:49.722Z,599.1
2022-11-23T10:51:33.336Z,612.8
2022-11-23T10:53:17.032Z,616.2
2022-11-23T10:55:00.846Z,615.4
2022-11-23T10:56:44.489Z,619.9
2022-11-23T10:58:28.134Z,623.9
2022-11-23T11:00:11.930Z,629.6
2022-11-23T11:01:55.528Z,635.8
2022-11-23T11:03:39.242Z,639.6
2022-11-23T11:05:22.942Z,647.9
2022-11-23T11:07:06.748Z,657.9
2022-11-23T11:08:50.329Z,668.8
2022-11-23T11:10:34.081Z,673.6
2022-11-23T11:12:17.736Z,675.3
2022-11-23T11:14:01.442Z,679.3
2022-11-23T11:15:45.145Z,682.1
2022-11-23T11:17:28.896Z,686.4
2022-11-23T11:19:12.558Z,688.2
2022-11-23T11:20:56.258Z,689.7
2022-11-23T11:22:39.945Z,689.9
2022-11-23T11:24:23.660Z,688.6
2022-11-23T11:26:07.388Z,691.8
2022-11-23T11:27:51.057Z,691.4
2022-11-23T11:29:34.749Z,692.6
2022-11-23T11:31:18.487Z,692.5
2022-11-23T11:33:02.297Z,690.4
2022-11-23T11:34:45.854Z,686
2022-11-23T11:36:29.560Z,684.5
2022-11-23T11:38:13.390Z,687.4
2022-11-23T11:39:57.064Z,686.3
2022-11-23T11:41:40.658Z,683.5
2022-11-23T11:43:24.379Z,684.4
2022-11-23T11:45:08.190Z,684.3
2022-11-23T11:46:51.811Z,683.1
2022-11-23T11:48:35.457Z,682.9
2022-11-23T11:50:19.252Z,686.6
2022-11-23T11:52:02.945Z,688.3
2022-11-23T11:53:46.577Z,687
2022-11-23T11:55:30.293Z,686.3
2022-11-23T11:57:13.980Z,688
2022-11-23T11:58:57.670Z,687.7
2022-11-23T12:00:41.488Z,693.9
2022-11-23T12:02:25.088Z,698.7
2022-11-23T12:04:08.785Z,702.6
2022-11-23T12:05:52.504Z,712
2022-11-23T12:07:36.204Z,720.6
2022-11-23T12:09:19.945Z,732.3
2022-11-23T12:11:03.671Z,765.4
2022-11-23T12:12:47.287Z,794
2022-11-23T12:14:31.012Z,803
2022-11-23T12:16:14.806Z,846.5
2022-11-23T12:17:58.377Z,858.1
2022-11-23T12:19:42.268Z,857.3
2022-11-23T12:21:25.807Z,859.9
2022-11-23T12:23:09.695Z,869.7
2022-11-23T12:24:53.340Z,882.4
2022-11-23T12:26:37.064Z,890.3
2022-11-23T12:28:20.810Z,901.1
2022-11-23T12:30:04.518Z,908.8
2022-11-23T12:31:48.154Z,916.5
2022-11-23T12:33:31.932Z,921
2022-11-23T12:35:15.432Z,922.9
2022-11-23T12:36:59.247Z,922.8
2022-11-23T12:38:42.857Z,926
2022-11-23T12:40:26.585Z,927
2022-11-23T12:42:10.221Z,928.7
2022-11-23T12:43:53.948Z,933
2022-11-23T12:45:37.665Z,938.9
2022-11-23T12:47:21.321Z,944.5
2022-11-23T12:49:05.083Z,948
2022-11-23T12:50:48.937Z,955.4
2022-11-23T12:52:32.568Z,959.6
2022-11-23T12:54:16.239Z,962.5
2022-11-23T12:55:59.829Z,962.3
2022-11-23T12:57:43.650Z,962.1
2022-11-23T12:59:27.384Z,965.5
2022-11-23T13:01:11.106Z,966.6
2022-11-23T13:02:54.657Z,965.7
2022-11-23T13:04:38.501Z,966.8
2022-11-23T13:06:22.180Z,970.4
2022-11-23T13:08:05.744Z,972.5
2022-11-23T13:09:49.453Z,971.6
2022-11-23T13:11:33.332Z,966
2022-11-23T13:13:17.048Z,961.3
2022-11-23T13:15:00.708Z,959.8
2022-11-23T13:16:44.390Z,960.9
2022-11-23T13:18:28.110Z,961.3
2022-11-23T13:20:11.658Z,963.3
2022-11-23T13:21:55.369Z,958.4
2022-11-23T13:23:39.278Z,958.7
2022-11-23T13:25:22.946Z,960.3
2022-11-23T13:27:06.670Z,958.1
2022-11-23T13:28:50.373Z,956.4
2022-11-23T13:30:33.872Z,956.7
2022-11-23T13:32:17.631Z,954.7
2022-11-23T13:34:01.509Z,954.3
2022-11-23T13:35:45.111Z,955.8
2022-11-23T13:37:28.795Z,954.2
2022-11-23T13:39:12.570Z,955.7
2022-11-23T13:40:56.245Z,951.2
2022-11-23T13:42:39.961Z,941.9
2022-11-23T13:44:23.637Z,928.2
2022-11-23T13:46:07.382Z,918
2022-11-23T13:47:51.051Z,911.1
2022-11-23T13:49:34.787Z,906.8
2022-11-23T13:51:18.424Z,901.5
2022-11-23T13:53:01.996Z,895.7
2022-11-23T13:54:45.874Z,890.3
2022-11-23T13:56:29.684Z,887.9
2022-11-23T13:58:13.209Z,887.1
2022-11-23T13:59:56.991Z,884.3
2022-11-23T14:01:40.527Z,881.9
2022-11-23T14:03:24.366Z,879.4
2022-11-23T14:05:08.073Z,879.1
2022-11-23T14:06:51.799Z,879.5
2022-11-23T14:08:35.486Z,878.6
2022-11-23T14:10:19.030Z,878.5
2022-11-23T14:12:02.923Z,878
2022-11-23T14:13:46.447Z,877.4
2022-11-23T14:15:30.315Z,873.7
2022-11-23T14:17:14.006Z,872.1
2022-11-23T14:18:57.748Z,872.5
2022-11-23T14:20:41.436Z,871.8
2022-11-23T14:22:25.162Z,874.3
2022-11-23T14:24:08.846Z,872.8
2022-11-23T14:25:52.601Z,871.3
2022-11-23T14:27:36.238Z,871.4
2022-11-23T14:29:19.771Z,869.4
2022-11-23T14:31:03.638Z,868.1
2022-11-23T14:32:47.312Z,864.5
2022-11-23T14:34:30.996Z,863.1
2022-11-23T14:36:14.558Z,860.9
2022-11-23T14:37:58.402Z,860.2
2022-11-23T14:39:42.187Z,858.5
2022-11-23T14:41:25.912Z,861.9
2022-11-23T14:43:09.542Z,861.2
2022-11-23T14:44:53.360Z,862.5
2022-11-23T14:46:36.786Z,865
2022-11-23T14:48:20.635Z,866.8
2022-11-23T14:50:04.186Z,871.2
2022-11-23T14:51:48.040Z,871.8
2022-11-23T14:53:31.761Z,872.6
2022-11-23T14:55:15.471Z,874.2
2022-11-23T14:56:59.154Z,869.6
2022-11-23T14:58:42.855Z,866.8
2022-11-23T15:00:26.552Z,868.5
2022-11-23T15:02:10.242Z,867.3
2022-11-23T15:03:53.800Z,862.1
2022-11-23T15:05:37.680Z,859.1
2022-11-23T15:07:21.207Z,857
2022-11-23T15:09:05.133Z,856.2
2022-11-23T15:10:48.761Z,856.8
2022-11-23T15:12:32.300Z,853.5
2022-11-23T15:14:16.171Z,850.5
2022-11-23T15:15:59.855Z,849
2022-11-23T15:17:43.563Z,845.6
2022-11-23T15:19:27.249Z,842
2022-11-23T15:21:10.930Z,837.1
2022-11-23T15:22:54.628Z,834.2
2022-11-23T15:24:38.437Z,827.6
2022-11-23T15:26:21.909Z,823.2
2022-11-23T15:28:05.872Z,823.5
2022-11-23T15:29:49.499Z,824.5
2022-11-23T15:31:33.042Z,820.2
2022-11-23T15:33:16.895Z,813.7
2022-11-23T15:35:00.617Z,810.9
2022-11-23T15:36:44.313Z,807.6
2022-11-23T15:38:28.001Z,803.8
2022-11-23T15:40:11.541Z,802.2
2022-11-23T15:41:55.432Z,799
2022-11-23T15:43:38.937Z,796.1
2022-11-23T15:45:22.632Z,796.1
2022-11-23T15:47:06.529Z,790.5
2022-11-23T15:48:50.190Z,788.7
2022-11-23T15:50:33.750Z,786.3
2022-11-23T15:52:17.459Z,785.7
2022-11-23T15:54:01.337Z,782.3
2022-11-23T15:55:45.049Z,778.8
2022-11-23T15:57:28.735Z,776.2
2022-11-23T15:59:12.455Z,773.1
2022-11-23T16:00:56.144Z,770.5
2022-11-23T16:02:39.767Z,766.9
2022-11-23T16:04:23.444Z,764.7
2022-11-23T16:06:07.305Z,761.8
2022-11-23T16:07:50.904Z,760
2022-11-23T16:09:34.644Z,761.8
2022-11-23T16:11:18.354Z,762.9
2022-11-23T16:13:02.079Z,761.4
2022-11-23T16:14:45.803Z,762
2022-11-23T16:16:29.434Z,774.5
2022-11-23T16:18:13.251Z,784
2022-11-23T16:19:56.869Z,791.1
2022-11-23T16:21:40.538Z,796.1
2022-11-23T16:23:24.244Z,796.3
2022-11-23T16:25:07.793Z,796.8
2022-11-23T16:26:51.745Z,795.8
2022-11-23T16:28:35.187Z,795.1
2022-11-23T16:30:18.875Z,789.6
2022-11-23T16:32:02.803Z,784.7
2022-11-23T16:33:46.446Z,783.9
2022-11-23T16:35:30.166Z,780.8
2022-11-23T16:37:13.818Z,776.7
2022-11-23T16:38:57.551Z,775.2
2022-11-23T16:40:41.129Z,772.4
2022-11-23T16:42:25.004Z,770.6
2022-11-23T16:44:08.715Z,770.4
2022-11-23T16:45:52.369Z,770.5
2022-11-23T16:47:35.915Z,767.6
2022-11-23T16:49:19.597Z,763.5
2022-11-23T16:51:03.314Z,760.4
2022-11-23T16:52:47.180Z,760.3
2022-11-23T16:54:30.705Z,761.2
2022-11-23T16:56:14.606Z,764.6
2022-11-23T16:57:58.293Z,769.6
2022-11-23T16:59:42.043Z,768.5
2022-11-23T17:01:25.562Z,767.5
2022-11-23T17:03:09.251Z,768.5
2022-11-23T17:04:53.125Z,774.9
2022-11-23T17:06:36.870Z,781.3
2022-11-23T17:08:20.516Z,784.7
2022-11-23T17:10:04.123Z,789.5
2022-11-23T17:11:47.957Z,796.3
2022-11-23T17:13:31.596Z,798.6
2022-11-23T17:15:15.315Z,858.3
2022-11-23T17:16:59.660Z,871
2022-11-23T17:18:42.535Z,863.6
2022-11-23T17:20:26.444Z,864
2022-11-23T17:22:10.123Z,872.9
2022-11-23T17:23:53.821Z,879.3
2022-11-23T17:25:37.528Z,884.2
2022-11-23T17:27:21.214Z,890.9
2022-11-23T17:29:04.939Z,898.2
2022-11-23T17:30:48.655Z,903.7
2022-11-23T17:32:32.311Z,908.8
2022-11-23T17:34:16.047Z,922.6
2022-11-23T17:35:59.569Z,929.8
2022-11-23T17:37:43.466Z,940.3
2022-11-23T17:39:27.156Z,942.1
2022-11-23T17:41:10.834Z,948.9
2022-11-23T17:42:54.673Z,951.6
2022-11-23T17:44:38.226Z,957.5
2022-11-23T17:46:21.788Z,962.3
2022-11-23T17:48:05.477Z,964.8
2022-11-23T17:49:49.353Z,967.4
2022-11-23T17:51:32.930Z,976.8
2022-11-23T17:53:16.814Z,982.1
2022-11-23T17:55:00.473Z,989.7
2022-11-23T17:56:44.180Z,991.2
2022-11-23T17:58:27.892Z,997.7
2022-11-23T18:00:11.532Z,1007
2022-11-23T18:01:55.273Z,1013.5
2022-11-23T18:03:38.994Z,1015.3
2022-11-23T18:05:22.734Z,1018.5
2022-11-23T18:07:06.294Z,1016
2022-11-23T18:08:50.571Z,1008.2
2022-11-23T18:10:33.776Z,1000.4
2022-11-23T18:12:17.530Z,997.5
2022-11-23T18:14:01.162Z,995.1
2022-11-23T18:15:44.702Z,995.3
2022-11-23T18:17:28.413Z,1001.6
2022-11-23T18:19:12.109Z,1003.2
2022-11-23T18:22:39.634Z,1007.6
2022-11-23T18:24:23.354Z,1013.4
2022-11-23T18:26:06.932Z,1012.9
2022-11-23T18:27:50.615Z,1012.8
2022-11-23T18:29:34.323Z,1015.7
2022-11-23T18:31:18.128Z,1021.4
2022-11-23T18:33:01.954Z,1020
2022-11-23T18:34:45.434Z,1018.4
2022-11-23T18:36:29.196Z,1017.6
2022-11-23T18:38:13.008Z,1021.9
2022-11-23T18:39:56.547Z,1021.9
2022-11-23T18:41:40.237Z,1019.8
2022-11-23T18:43:23.968Z,1023.2
2022-11-23T18:45:07.712Z,1023.1
2022-11-23T18:46:51.499Z,1021.9
2022-11-23T18:48:35.136Z,1021.8
2022-11-23T18:50:18.857Z,1020.5
2022-11-23T18:52:02.491Z,1024.1
2022-11-23T18:53:46.172Z,1023.7
2022-11-23T18:55:29.870Z,1025.9
2022-11-23T18:57:13.674Z,1023.6
2022-11-23T18:58:57.343Z,1024.8
2022-11-23T19:00:41.049Z,1026.2
2022-11-23T19:02:24.711Z,1024.6
2022-11-23T19:04:08.395Z,1021.8
2022-11-23T19:05:52.117Z,1019
2022-11-23T19:07:35.868Z,1016
2022-11-23T19:09:19.483Z,1019.2
2022-11-23T19:11:03.310Z,1018.6
2022-11-23T19:12:46.890Z,1019
2022-11-23T19:14:30.723Z,1019.7
2022-11-23T19:16:14.315Z,1020.3
2022-11-23T19:17:57.988Z,1023.2
2022-11-23T19:19:41.684Z,1021.8
2022-11-23T19:21:25.377Z,1019.6
2022-11-23T19:23:09.109Z,1022.7
2022-11-23T19:24:52.851Z,1023.8
2022-11-23T19:26:36.539Z,1026.9
2022-11-23T19:28:20.233Z,1028.9
2022-11-23T19:30:04.029Z,1030.8
2022-11-23T19:31:47.608Z,1031.8
2022-11-23T19:33:31.291Z,1032.5
2022-11-23T19:35:14.997Z,1033.8
2022-11-23T19:36:58.706Z,1036.5
2022-11-23T19:38:42.474Z,1034.3
2022-11-23T19:40:26.079Z,1039
2022-11-23T19:42:09.805Z,1043.6
2022-11-23T19:43:53.534Z,1049.8
2022-11-23T19:45:37.207Z,1053.5
2022-11-23T19:47:20.926Z,1054
2022-11-23T19:49:04.728Z,1052.1
2022-11-23T19:50:48.308Z,1050.4
2022-11-23T19:52:32.033Z,1047.1
2022-11-23T19:54:15.790Z,1044.7
2022-11-23T19:55:59.493Z,1042.4
2022-11-23T19:57:43.303Z,1043.7
2022-11-23T19:59:29.019Z,1045.4
2022-11-23T20:01:10.642Z,1045.3
2022-11-23T20:04:37.927Z,1049.1
2022-11-23T20:06:21.782Z,1049.3
2022-11-23T20:08:05.354Z,1050.6
2022-11-23T20:09:49.032Z,1047.3
2022-11-23T20:11:32.800Z,1050.9
2022-11-23T20:13:16.490Z,1054.8
2022-11-23T20:15:00.195Z,1059.8
2022-11-23T20:16:43.855Z,1062.5
2022-11-23T20:18:27.558Z,1066.2
2022-11-23T20:20:11.271Z,1066.7
2022-11-23T20:21:55.082Z,1064.3
2022-11-23T20:23:38.700Z,1066.3
2022-11-23T20:25:22.347Z,1066.7
2022-11-23T20:27:06.093Z,1066.1
2022-11-23T20:28:49.870Z,1063.5
2022-11-23T20:30:33.477Z,1062.3
2022-11-23T20:32:17.240Z,1061.9
2022-11-23T20:34:00.924Z,1061
2022-11-23T20:35:44.615Z,1061.4
2022-11-23T20:37:28.337Z,1065.6
2022-11-23T20:39:12.064Z,1068.4
2022-11-23T20:40:55.663Z,1072.2
2022-11-23T20:42:39.439Z,1071.7
2022-11-23T20:44:23.209Z,1065.9
2022-11-23T20:46:06.762Z,1064.9
2022-11-23T20:47:50.475Z,1062.7
2022-11-23T20:49:34.230Z,1065.2
2022-11-23T20:51:17.861Z,1066.5
2022-11-23T20:53:01.570Z,1067.3
2022-11-23T20:54:45.287Z,1065.7
2022-11-23T20:56:29.005Z,1063.4
2022-11-23T20:58:12.771Z,1060.3
2022-11-23T20:59:56.416Z,1056.9
2022-11-23T21:01:40.089Z,1052.3
2022-11-23T21:03:23.791Z,1047.8
2022-11-23T21:05:07.573Z,1048.2
2022-11-23T21:06:51.185Z,1046.7
2022-11-23T21:08:34.897Z,1046.5
2022-11-23T21:10:18.588Z,1045.7
2022-11-23T21:12:02.372Z,1045.5
2022-11-23T21:13:45.981Z,1046
2022-11-23T21:15:29.844Z,1045.8
2022-11-23T21:17:13.593Z,1043.5
2022-11-23T21:18:57.222Z,1045.8
2022-11-23T21:20:40.852Z,1049.2
2022-11-23T21:22:24.685Z,1050.1
2022-11-23T21:24:08.340Z,1055
2022-11-23T21:27:35.771Z,1057.7
2022-11-23T21:29:19.498Z,1061.1
2022-11-23T21:31:03.209Z,1066.3
2022-11-23T21:32:46.877Z,1067.1
2022-11-23T21:34:30.605Z,1064.7
2022-11-23T21:36:14.301Z,1063.6
2022-11-23T21:37:57.980Z,1061.9
2022-11-23T21:39:41.698Z,1062
2022-11-23T21:41:25.483Z,1061.5
2022-11-23T21:43:09.142Z,1061.1
2022-11-23T21:44:52.640Z,1061.7
2022-11-23T21:46:36.522Z,1062.1
2022-11-23T21:48:20.212Z,1063.5
2022-11-23T21:50:03.760Z,1067.5
2022-11-23T21:51:47.616Z,1067.6
2022-11-23T21:53:31.281Z,1063.8
2022-11-23T21:55:15.073Z,1065
2022-11-23T21:56:58.755Z,1065.7
2022-11-23T21:58:42.449Z,1066.6
2022-11-23T22:00:26.104Z,1069.4
2022-11-23T22:02:09.832Z,1067.8
2022-11-23T22:03:53.500Z,1062.8
2022-11-23T22:05:37.161Z,1064.5
2022-11-23T22:07:20.989Z,1068.2
2022-11-23T22:09:04.548Z,1071.6
2022-11-23T22:10:48.204Z,1072.4
2022-11-23T22:12:31.899Z,1073.1
2022-11-23T22:14:15.599Z,1076.5
2022-11-23T22:15:59.298Z,1074.8
2022-11-23T22:17:43.006Z,1079.1
2022-11-23T22:19:26.723Z,1075.3
2022-11-23T22:21:10.411Z,1068.7
2022-11-23T22:22:54.118Z,1068.5